Time;durP1;ratioP1;P1;durP2;ratioP2;P2;SDS_P1;SDS_P2;PMS_P1;PMS_P2;Temp;Humidity;BMP_temperature;BMP_pressure;BME280_temperature;BME280_humidity;BME280_pressure;Samples;Min_cycle;Max_cycle;Signal;HPM_P1;HPM_P2
2022/04/07 03:02:43;;;;;;;17.92;4.90;;;9.00;99.90;;;;;;4976037;28;20101;-83
2022/04/07 03:05:08;;;;;;;14.85;4.20;;;9.00;99.90;;;;;;4976155;28;20047;-82
2022/04/07 03:07:35;;;;;;;15.02;4.60;;;9.00;99.90;;;;;;4975572;28;20501;-83
2022/04/07 03:10:01;;;;;;;17.33;4.75;;;9.00;99.90;;;;;;4975764;28;20051;-81
2022/04/07 03:12:27;;;;;;;14.60;4.72;;;9.00;99.90;;;;;;4976164;28;20069;-83
2022/04/07 03:14:53;;;;;;;13.63;3.63;;;9.00;99.90;;;;;;4977411;28;20074;-83
2022/04/07 03:17:18;;;;;;;21.85;4.95;;;9.00;99.90;;;;;;4977063;28;20077;-83
2022/04/07 03:19:44;;;;;;;11.35;4.00;;;8.90;99.90;;;;;;4974965;28;20082;-84
2022/04/07 03:22:12;;;;;;;15.57;4.45;;;8.90;99.90;;;;;;4975261;28;20053;-81
2022/04/07 03:24:38;;;;;;;10.70;3.55;;;8.90;99.90;;;;;;4975157;28;20125;-83
2022/04/07 03:27:05;;;;;;;16.33;3.90;;;8.90;99.90;;;;;;4977066;28;20075;-84
2022/04/07 03:29:31;;;;;;;17.15;3.85;;;9.00;99.90;;;;;;4975761;28;20089;-82
2022/04/07 03:31:57;;;;;;;15.60;4.25;;;9.00;99.90;;;;;;4960847;28;20039;-83
2022/04/07 03:34:22;;;;;;;12.63;4.13;;;9.00;99.90;;;;;;4979165;28;20078;-82
2022/04/07 03:36:48;;;;;;;10.40;3.42;;;9.10;99.90;;;;;;4979451;28;20049;-82
2022/04/07 03:39:14;;;;;;;12.80;3.88;;;9.10;99.90;;;;;;4980447;28;20045;-82
2022/04/07 03:41:39;;;;;;;9.73;3.22;;;9.10;99.90;;;;;;4978407;28;20046;-84
2022/04/07 03:44:09;;;;;;;10.65;3.20;;;9.10;99.90;;;;;;4977756;28;20078;-82
2022/04/07 03:46:35;;;;;;;23.27;5.18;;;9.10;99.90;;;;;;4977956;28;20109;-81
2022/04/07 03:49:01;;;;;;;18.45;4.35;;;9.20;99.90;;;;;;4980134;28;20603;-83
2022/04/07 03:51:27;;;;;;;12.32;3.42;;;9.20;99.90;;;;;;4978671;28;20087;-84
2022/04/07 03:53:52;;;;;;;19.08;4.13;;;9.20;99.90;;;;;;4978650;28;20518;-84
2022/04/07 03:56:18;;;;;;;12.95;4.03;;;9.20;99.90;;;;;;4978515;28;20495;-83
2022/04/07 03:58:43;;;;;;;20.60;3.97;;;9.10;99.90;;;;;;4962383;28;20042;-83
2022/04/07 04:01:10;;;;;;;17.38;4.07;;;9.10;99.90;;;;;;4985452;28;20042;-84
2022/04/07 04:03:36;;;;;;;19.52;5.05;;;9.10;99.90;;;;;;4998319;28;20053;-82
2022/04/07 04:06:02;;;;;;;20.83;4.47;;;9.10;99.90;;;;;;4997755;28;20038;-82
2022/04/07 04:08:28;;;;;;;26.95;6.38;;;9.10;99.90;;;;;;4997054;28;20046;-83
2022/04/07 04:10:53;;;;;;;20.85;5.57;;;9.00;99.90;;;;;;4981196;28;20422;-82
2022/04/07 04:13:19;;;;;;;26.42;6.18;;;9.00;99.90;;;;;;4997731;28;20077;-82
2022/04/07 04:15:45;;;;;;;21.02;5.43;;;9.00;99.90;;;;;;4998611;28;20487;-83
2022/04/07 04:18:11;;;;;;;31.08;4.57;;;9.00;99.90;;;;;;4996885;28;20092;-82
2022/04/07 04:20:38;;;;;;;24.42;4.60;;;9.00;99.90;;;;;;4996465;28;20078;-84
2022/04/07 04:23:04;;;;;;;22.45;4.72;;;9.00;99.90;;;;;;4996442;28;20053;-82
2022/04/07 04:25:30;;;;;;;25.75;5.50;;;8.90;99.90;;;;;;4996184;28;20034;-82
2022/04/07 04:27:55;;;;;;;22.35;5.43;;;8.90;99.90;;;;;;4996632;28;20394;-82
2022/04/07 04:30:21;;;;;;;27.25;5.05;;;8.90;99.90;;;;;;4995942;28;20045;-81
2022/04/07 04:32:47;;;;;;;23.85;4.72;;;8.90;99.90;;;;;;4995206;28;20125;-83
2022/04/07 04:35:12;;;;;;;23.30;4.57;;;8.90;99.90;;;;;;4996125;28;20046;-83
2022/04/07 04:37:39;;;;;;;22.40;4.15;;;8.90;99.90;;;;;;4997541;28;20113;-80
2022/04/07 04:40:05;;;;;;;19.00;5.45;;;8.80;99.90;;;;;;4979733;28;20585;-83
2022/04/07 04:42:31;;;;;;;33.08;5.75;;;8.70;99.90;;;;;;4996342;28;20042;-85
2022/04/07 04:44:56;;;;;;;23.58;5.72;;;8.70;99.90;;;;;;4980047;28;20458;-82
2022/04/07 04:47:22;;;;;;;23.50;4.93;;;8.70;99.90;;;;;;4980375;28;20038;-83
2022/04/07 04:49:48;;;;;;;15.68;4.45;;;8.70;99.90;;;;;;4980038;28;20046;-84
2022/04/07 04:52:14;;;;;;;25.63;5.32;;;8.70;99.90;;;;;;4995616;28;20108;-83
2022/04/07 04:54:40;;;;;;;32.00;6.78;;;8.70;99.90;;;;;;4996566;28;20053;-80
2022/04/07 04:57:06;;;;;;;7.80;2.58;;;8.60;99.90;;;;;;4995266;28;20096;-83
2022/04/07 04:59:32;;;;;;;9.50;2.65;;;8.40;99.90;;;;;;4994972;28;20129;-83
2022/04/07 05:01:58;;;;;;;12.23;2.25;;;8.20;99.90;;;;;;4979196;28;20039;-82
2022/04/07 05:04:24;;;;;;;14.60;2.22;;;8.00;99.90;;;;;;4994832;28;20121;-82
2022/04/07 05:06:50;;;;;;;15.95;2.78;;;7.90;99.90;;;;;;4978796;28;20126;-86
2022/04/07 05:09:16;;;;;;;15.00;3.28;;;7.80;99.90;;;;;;4996743;28;20121;-87
2022/04/07 05:11:42;;;;;;;18.48;4.47;;;7.80;99.90;;;;;;4978983;28;20073;-81
2022/04/07 05:14:07;;;;;;;18.65;4.28;;;7.80;99.90;;;;;;4996044;28;20117;-84
2022/04/07 05:16:33;;;;;;;18.83;5.22;;;7.80;99.90;;;;;;4996292;28;20077;-83
2022/04/07 05:18:59;;;;;;;24.55;5.63;;;7.90;99.90;;;;;;4994309;28;20042;-81
2022/04/07 05:21:24;;;;;;;21.83;6.47;;;7.90;99.90;;;;;;4994764;28;20041;-80
2022/04/07 05:23:50;;;;;;;10.07;2.08;;;8.00;99.90;;;;;;4996575;28;20065;-84
2022/04/07 05:26:16;;;;;;;3.63;0.98;;;7.70;99.90;;;;;;4979056;28;20098;-82
2022/04/07 05:28:42;;;;;;;7.72;1.20;;;6.20;99.90;;;;;;4979259;28;20049;-84
2022/04/07 05:31:09;;;;;;;6.60;1.08;;;5.20;99.90;;;;;;4995164;28;20049;-82
2022/04/07 05:33:35;;;;;;;5.57;1.20;;;4.60;99.90;;;;;;4995604;28;20125;-82
2022/04/07 05:36:01;;;;;;;8.85;1.13;;;4.30;99.90;;;;;;4995578;28;20474;-83
2022/04/07 05:38:27;;;;;;;9.32;1.55;;;4.20;99.90;;;;;;4978881;28;20086;-82
2022/04/07 05:40:54;;;;;;;11.35;1.85;;;4.20;99.90;;;;;;4995440;28;20129;-83
2022/04/07 05:43:19;;;;;;;6.47;1.30;;;4.30;99.90;;;;;;4994285;28;20092;-81
2022/04/07 05:45:45;;;;;;;11.75;1.60;;;4.30;99.90;;;;;;4994476;28;20047;-82
2022/04/07 05:48:14;;;;;;;12.70;1.60;;;4.40;99.90;;;;;;4995062;28;20050;-84
2022/04/07 05:50:41;;;;;;;9.48;1.92;;;4.40;99.90;;;;;;4996182;28;20041;-84
2022/04/07 05:53:07;;;;;;;9.05;1.55;;;4.50;99.90;;;;;;4995639;28;20042;-82
2022/04/07 05:55:33;;;;;;;8.55;1.40;;;4.60;99.90;;;;;;4995015;28;20049;-84
2022/04/07 05:58:04;;;;;;;10.23;2.20;;;4.70;99.90;;;;;;4996447;28;20037;-82
2022/04/07 06:00:30;;;;;;;10.75;1.88;;;4.70;99.90;;;;;;4994790;28;20049;-82
2022/04/07 06:02:55;;;;;;;7.88;1.50;;;4.80;99.90;;;;;;4995081;28;20475;-82
2022/04/07 06:05:21;;;;;;;8.60;1.75;;;4.90;99.90;;;;;;4996574;28;20117;-84
2022/04/07 06:07:47;;;;;;;11.80;1.95;;;4.90;99.90;;;;;;4994823;28;20049;-82
2022/04/07 06:10:18;;;;;;;11.48;1.23;;;5.00;99.90;;;;;;4977877;28;20057;-80
2022/04/07 06:12:46;;;;;;;12.55;1.48;;;5.10;99.90;;;;;;4996045;28;20394;-83
2022/04/07 06:15:13;;;;;;;7.10;1.17;;;5.20;99.90;;;;;;4994811;28;20114;-83
2022/04/07 06:17:41;;;;;;;6.90;1.20;;;5.20;99.90;;;;;;4996803;28;20155;-81
2022/04/07 06:20:08;;;;;;;7.38;1.40;;;5.20;99.90;;;;;;4994846;28;20046;-81
2022/04/07 06:22:34;;;;;;;5.30;0.93;;;5.30;99.90;;;;;;4995245;28;20108;-82
2022/04/07 06:25:00;;;;;;;7.55;1.58;;;5.30;99.90;;;;;;4994938;28;20474;-82
2022/04/07 06:27:38;;;;;;;5.88;1.00;;;5.30;99.90;;;;;;4994899;28;20089;-80
2022/04/07 06:30:06;;;;;;;3.30;0.80;;;5.40;99.90;;;;;;4995612;28;20046;-87
2022/04/07 06:32:32;;;;;;;6.38;2.00;;;5.40;99.90;;;;;;4996944;28;20429;-87
2022/04/07 06:34:58;;;;;;;5.90;0.90;;;5.40;99.90;;;;;;4995197;28;20046;-83
2022/04/07 06:37:24;;;;;;;4.35;0.68;;;5.50;99.90;;;;;;4996045;28;20386;-85
2022/04/07 06:39:50;;;;;;;7.88;1.33;;;5.40;99.90;;;;;;4979115;28;20057;-83
2022/04/07 06:42:15;;;;;;;4.15;1.13;;;5.50;99.90;;;;;;4995573;28;20039;-84
2022/04/07 06:44:41;;;;;;;5.80;0.57;;;5.50;99.90;;;;;;4995610;28;20085;-82
2022/04/07 06:47:07;;;;;;;2.15;0.55;;;5.50;99.90;;;;;;4994556;28;20057;-84
2022/04/07 06:49:32;;;;;;;4.35;0.82;;;5.50;99.90;;;;;;4994913;28;20042;-84
2022/04/07 06:51:58;;;;;;;4.80;0.70;;;5.60;99.90;;;;;;4994580;28;20056;-85
2022/04/07 06:54:23;;;;;;;4.75;0.80;;;5.60;99.90;;;;;;4994670;28;20050;-87
2022/04/07 06:56:49;;;;;;;5.53;0.73;;;5.70;99.90;;;;;;4996396;28;20042;-87
2022/04/07 06:59:14;;;;;;;4.22;0.60;;;5.70;99.90;;;;;;4994404;28;20042;-84
2022/04/07 07:01:41;;;;;;;3.78;0.70;;;5.70;99.90;;;;;;4995682;28;20038;-84
2022/04/07 07:04:07;;;;;;;5.15;1.17;;;5.70;99.90;;;;;;4994335;28;20046;-84
2022/04/07 07:06:32;;;;;;;4.60;0.80;;;5.90;99.90;;;;;;4995120;28;20042;-84
2022/04/07 07:08:58;;;;;;;4.05;0.80;;;5.80;99.90;;;;;;4999571;28;20394;-84
2022/04/07 07:11:23;;;;;;;6.55;0.88;;;5.80;99.90;;;;;;4998906;28;20042;-85
2022/04/07 07:13:49;;;;;;;6.80;0.95;;;5.80;99.90;;;;;;4999868;28;20045;-85
2022/04/07 07:16:15;;;;;;;4.05;0.90;;;5.80;99.90;;;;;;4998629;28;20050;-87
2022/04/07 07:18:42;;;;;;;4.63;0.80;;;5.80;99.90;;;;;;4997955;28;20048;-85
2022/04/07 07:21:08;;;;;;;4.93;0.98;;;5.80;99.90;;;;;;4998059;28;20049;-83
2022/04/07 07:23:33;;;;;;;5.45;1.00;;;5.90;99.90;;;;;;4999540;28;20038;-82
2022/04/07 07:25:59;;;;;;;3.30;0.70;;;6.00;99.90;;;;;;4997088;28;20039;-83
2022/04/07 07:28:24;;;;;;;3.20;0.70;;;6.00;99.90;;;;;;4999110;28;20073;-84
2022/04/07 07:30:50;;;;;;;4.05;1.45;;;6.10;99.90;;;;;;4997740;28;20049;-85
2022/04/07 07:33:16;;;;;;;7.18;0.68;;;6.00;99.90;;;;;;4997581;28;20050;-84
2022/04/07 07:35:45;;;;;;;3.90;1.27;;;6.00;99.90;;;;;;4998729;28;20038;-83
2022/04/07 07:38:11;;;;;;;1.63;0.50;;;6.00;99.90;;;;;;4997844;28;20050;-86
2022/04/07 07:40:37;;;;;;;7.18;1.05;;;6.10;99.90;;;;;;4997626;28;20097;-83
2022/04/07 07:43:03;;;;;;;4.45;0.85;;;6.10;99.90;;;;;;4997243;28;20046;-84
2022/04/07 07:45:32;;;;;;;4.57;0.80;;;6.10;99.90;;;;;;4997704;28;20042;-84
2022/04/07 07:47:57;;;;;;;3.85;0.80;;;6.10;99.90;;;;;;4998871;28;20471;-86
2022/04/07 07:50:23;;;;;;;5.10;1.73;;;6.10;99.90;;;;;;4996931;28;20049;-83
2022/04/07 07:52:49;;;;;;;1.90;0.60;;;6.20;99.90;;;;;;4997320;28;20042;-84
2022/04/07 07:55:15;;;;;;;10.68;1.00;;;6.30;99.90;;;;;;4997202;28;20045;-85
2022/04/07 07:57:41;;;;;;;3.45;0.85;;;6.40;99.90;;;;;;4997145;28;20483;-85
2022/04/07 08:00:08;;;;;;;2.88;1.13;;;6.50;99.90;;;;;;4996517;28;20046;-86
2022/04/07 08:02:34;;;;;;;8.73;0.77;;;6.60;99.90;;;;;;4997831;28;20039;-86
2022/04/07 08:05:01;;;;;;;4.22;0.60;;;6.60;99.90;;;;;;4997112;28;20043;-84
2022/04/07 08:07:27;;;;;;;6.97;0.70;;;6.70;99.90;;;;;;4998056;28;20044;-84
2022/04/07 08:09:55;;;;;;;4.82;0.75;;;6.70;99.90;;;;;;4996773;28;20486;-85
2022/04/07 08:12:21;;;;;;;4.32;0.80;;;6.80;99.90;;;;;;4981376;28;20125;-81
2022/04/07 08:14:46;;;;;;;3.95;0.70;;;6.90;99.90;;;;;;4980848;28;20077;-83
2022/04/07 08:17:12;;;;;;;5.45;1.00;;;6.90;99.90;;;;;;4995829;28;20042;-84
2022/04/07 08:19:40;;;;;;;3.22;0.55;;;7.00;99.90;;;;;;4997291;28;20133;-85
2022/04/07 08:22:06;;;;;;;6.47;1.35;;;7.10;99.90;;;;;;4979940;28;20042;-84
2022/04/07 08:24:31;;;;;;;4.32;0.90;;;7.30;99.90;;;;;;4997660;28;20049;-83
2022/04/07 08:26:57;;;;;;;3.72;1.02;;;7.40;99.90;;;;;;4995440;28;20506;-82
2022/04/07 08:29:22;;;;;;;5.47;1.15;;;7.50;99.90;;;;;;4995922;28;20038;-83
2022/04/07 08:31:51;;;;;;;0.90;0.38;;;7.50;99.90;;;;;;4995431;28;20485;-84
2022/04/07 08:34:18;;;;;;;4.32;0.75;;;7.60;99.90;;;;;;4979067;28;20050;-83
2022/04/07 08:36:43;;;;;;;4.93;0.93;;;7.70;99.90;;;;;;4996529;28;20038;-84
2022/04/07 08:39:09;;;;;;;2.67;0.50;;;7.80;99.90;;;;;;4980080;28;20375;-82
2022/04/07 08:41:37;;;;;;;3.75;0.70;;;8.00;99.90;;;;;;4984147;28;20088;-83
2022/04/07 08:44:03;;;;;;;3.38;0.75;;;8.20;99.90;;;;;;4987812;28;20085;-83
2022/04/07 08:46:32;;;;;;;5.03;0.90;;;8.40;99.90;;;;;;5015602;28;20126;-83
2022/04/07 08:49:04;;;;;;;5.43;1.02;;;8.40;99.90;;;;;;5015988;28;20054;-83
2022/04/07 08:51:30;;;;;;;7.25;1.13;;;8.50;99.90;;;;;;5014423;28;20046;-83
2022/04/07 08:53:55;;;;;;;3.03;0.82;;;8.60;99.90;;;;;;4999084;28;20042;-82
2022/04/07 08:56:23;;;;;;;3.00;0.95;;;8.60;99.90;;;;;;4996676;28;20042;-83
2022/04/07 08:58:50;;;;;;;4.97;0.82;;;8.60;99.90;;;;;;4980250;28;20056;-81
2022/04/07 09:01:15;;;;;;;7.05;0.95;;;8.70;99.90;;;;;;4980008;28;20039;-85
2022/04/07 09:03:43;;;;;;;6.93;0.98;;;8.80;99.90;;;;;;4995705;28;20042;-84
2022/04/07 09:06:09;;;;;;;5.30;0.70;;;8.90;99.90;;;;;;4995863;28;20046;-82
2022/04/07 09:08:37;;;;;;;7.75;0.88;;;9.00;99.90;;;;;;4995447;28;20399;-83
2022/04/07 09:11:05;;;;;;;11.93;2.35;;;9.10;99.90;;;;;;4996705;28;20054;-83
2022/04/07 09:13:36;;;;;;;4.60;1.10;;;9.20;99.90;;;;;;4995377;28;20046;-83
2022/04/07 09:16:15;;;;;;;6.53;0.95;;;9.20;99.90;;;;;;4995710;28;20046;-85
2022/04/07 09:18:47;;;;;;;3.97;0.90;;;9.40;99.90;;;;;;4995120;28;20077;-84
2022/04/07 09:21:18;;;;;;;8.85;1.40;;;9.40;99.90;;;;;;4995348;28;20046;-84
2022/04/07 09:23:44;;;;;;;7.65;1.02;;;9.40;99.90;;;;;;4996172;28;20047;-83
2022/04/07 09:26:15;;;;;;;7.40;1.15;;;9.30;99.90;;;;;;4996954;28;20031;-82
2022/04/07 09:28:42;;;;;;;5.57;1.15;;;9.20;99.90;;;;;;4994221;28;20402;-83
2022/04/07 09:31:12;;;;;;;7.25;1.35;;;9.20;99.90;;;;;;4995818;28;20042;-84
2022/04/07 09:33:38;;;;;;;8.13;1.27;;;9.10;99.90;;;;;;4994910;28;20490;-83
2022/04/07 09:36:10;;;;;;;9.57;1.65;;;9.20;99.90;;;;;;4994194;28;20050;-84
2022/04/07 09:38:36;;;;;;;10.45;1.58;;;9.30;99.90;;;;;;4994526;28;20050;-83
2022/04/07 09:41:04;;;;;;;9.68;1.35;;;9.20;99.90;;;;;;4994188;28;20046;-84
2022/04/07 09:43:30;;;;;;;8.18;1.58;;;9.20;99.90;;;;;;4994614;28;20049;-85
2022/04/07 09:45:56;;;;;;;10.27;1.73;;;9.10;99.90;;;;;;4995683;28;20327;-84
2022/04/07 09:48:24;;;;;;;9.75;1.10;;;9.10;99.90;;;;;;4994063;28;20046;-85
2022/04/07 09:51:09;;;;;;;14.77;2.50;;;9.10;99.90;;;;;;4978078;28;20504;-83
2022/04/07 09:53:37;;;;;;;8.65;1.50;;;9.10;99.90;;;;;;4995135;28;20042;-83
2022/04/07 09:56:07;;;;;;;8.73;1.45;;;9.30;99.90;;;;;;4994994;28;20097;-82
2022/04/07 09:58:34;;;;;;;11.52;1.80;;;9.40;99.90;;;;;;4978083;28;20116;-85
2022/04/07 10:01:04;;;;;;;8.38;1.77;;;9.50;99.90;;;;;;4994057;28;20034;-84
2022/04/07 10:03:30;;;;;;;15.88;1.83;;;9.50;99.90;;;;;;4994038;28;20031;-84
2022/04/07 10:05:58;;;;;;;13.77;2.38;;;9.50;99.90;;;;;;4994513;28;20054;-84
2022/04/07 10:08:24;;;;;;;9.32;1.58;;;9.40;99.90;;;;;;4994255;28;20053;-84
2022/04/07 10:10:50;;;;;;;9.07;1.83;;;9.50;99.90;;;;;;4978206;28;20038;-82
2022/04/07 10:13:16;;;;;;;8.77;1.92;;;9.50;99.90;;;;;;4994301;28;20081;-84
2022/04/07 10:15:42;;;;;;;13.15;2.33;;;9.50;99.90;;;;;;4993448;28;20549;-83
2022/04/07 10:18:15;;;;;;;9.82;2.08;;;9.40;99.90;;;;;;4994781;28;20122;-82
2022/04/07 10:20:45;;;;;;;9.48;1.70;;;9.30;99.90;;;;;;4993691;28;20514;-82
2022/04/07 10:23:41;;;;;;;6.40;1.48;;;9.30;99.90;;;;;;4994421;28;20372;-83
2022/04/07 10:26:10;;;;;;;11.40;1.30;;;9.30;99.90;;;;;;4978198;28;20545;-84
2022/04/07 10:28:36;;;;;;;13.40;2.35;;;9.40;99.90;;;;;;4995418;28;20038;-84
2022/04/07 10:31:13;;;;;;;17.65;2.00;;;9.40;99.90;;;;;;4993866;28;20034;-82
2022/04/07 10:33:38;;;;;;;11.02;2.00;;;9.40;99.90;;;;;;4995425;28;20393;-83
2022/04/07 10:36:16;;;;;;;10.23;1.75;;;9.40;99.90;;;;;;4994566;28;20050;-85
2022/04/07 10:38:44;;;;;;;7.10;1.33;;;9.40;99.90;;;;;;4993071;28;20553;-84
2022/04/07 10:41:10;;;;;;;17.23;2.80;;;9.40;99.90;;;;;;4996387;28;20490;-84
2022/04/07 10:43:40;;;;;;;12.75;1.70;;;9.40;99.90;;;;;;4999921;28;20046;-84
2022/04/07 10:46:12;;;;;;;13.60;1.63;;;9.40;99.90;;;;;;4983796;28;20048;-84
2022/04/07 10:49:09;;;;;;;12.63;1.92;;;9.40;99.90;;;;;;5000071;28;20050;-83
2022/04/07 10:51:45;;;;;;;9.50;2.05;;;9.40;99.90;;;;;;4998696;28;20093;-78
2022/04/07 10:54:12;;;;;;;15.35;2.20;;;9.20;99.90;;;;;;4983892;28;20056;-83
2022/04/07 10:56:39;;;;;;;11.85;2.30;;;8.80;99.90;;;;;;4999270;28;20074;-85
2022/04/07 10:59:16;;;;;;;13.45;1.75;;;8.60;99.90;;;;;;4983488;28;20057;-83
2022/04/07 11:01:42;;;;;;;19.52;2.60;;;8.50;99.90;;;;;;4999741;28;20046;-84
2022/04/07 11:04:22;;;;;;;8.20;1.67;;;8.50;99.90;;;;;;5000404;28;20548;-84
2022/04/07 11:07:16;;;;;;;16.15;2.10;;;8.50;99.90;;;;;;4983648;28;20485;-86
2022/04/07 11:09:44;;;;;;;10.75;1.85;;;8.70;99.90;;;;;;5000631;28;20038;-85
2022/04/07 11:12:12;;;;;;;15.18;3.05;;;8.90;99.90;;;;;;5000082;28;20442;-84
2022/04/07 11:14:38;;;;;;;12.50;2.67;;;9.10;99.90;;;;;;5001647;28;20101;-84
2022/04/07 11:17:08;;;;;;;18.45;2.35;;;9.40;99.90;;;;;;4999842;28;20050;-85
2022/04/07 11:19:50;;;;;;;12.10;2.22;;;9.80;99.90;;;;;;4999803;28;20491;-81
2022/04/07 11:22:19;;;;;;;18.10;3.03;;;10.00;99.90;;;;;;4999817;28;20038;-81
2022/04/07 11:24:44;;;;;;;21.58;3.13;;;10.20;99.90;;;;;;4983303;28;20046;-84
2022/04/07 11:27:36;;;;;;;16.77;2.45;;;10.10;99.90;;;;;;4999914;28;20397;-85
2022/04/07 11:30:10;;;;;;;12.23;2.42;;;10.10;99.90;;;;;;4999819;28;20073;-82
2022/04/07 11:32:36;;;;;;;12.82;2.13;;;9.90;99.90;;;;;;5000936;28;20076;-85
2022/04/07 11:35:15;;;;;;;12.15;2.22;;;9.80;99.90;;;;;;4999531;28;20050;-82
2022/04/07 11:37:42;;;;;;;15.80;2.30;;;9.70;99.90;;;;;;5000883;28;20085;-83
2022/04/07 11:40:11;;;;;;;11.13;2.67;;;9.70;99.90;;;;;;4998920;28;20042;-85
2022/04/07 11:42:39;;;;;;;14.18;2.80;;;9.70;99.90;;;;;;4982630;28;20046;-84
2022/04/07 11:45:05;;;;;;;9.30;2.45;;;9.70;99.90;;;;;;4999393;28;20049;-83
2022/04/07 11:47:36;;;;;;;14.32;2.58;;;9.90;99.90;;;;;;4999568;28;20041;-84
2022/04/07 11:50:04;;;;;;;13.20;3.00;;;10.00;99.90;;;;;;5000834;28;20423;-86
2022/04/07 11:52:32;;;;;;;10.45;2.13;;;10.20;99.90;;;;;;4997586;28;20121;-85
2022/04/07 11:54:59;;;;;;;15.32;2.17;;;10.30;99.90;;;;;;4996507;28;20046;-84
2022/04/07 11:57:27;;;;;;;11.63;1.52;;;10.50;99.90;;;;;;4996985;28;20092;-84
2022/04/07 12:00:11;;;;;;;10.50;1.83;;;10.60;99.90;;;;;;4998026;28;20092;-84
2022/04/07 12:02:36;;;;;;;14.95;2.45;;;10.50;99.90;;;;;;4981823;28;20077;-83
2022/04/07 12:05:04;;;;;;;13.80;1.98;;;10.40;99.90;;;;;;4996094;28;20380;-85
2022/04/07 12:07:30;;;;;;;8.13;1.90;;;10.60;99.90;;;;;;4996422;28;20039;-84
2022/04/07 12:10:04;;;;;;;10.60;1.80;;;10.60;99.90;;;;;;4979632;28;20099;-83
2022/04/07 12:12:30;;;;;;;12.07;1.95;;;10.50;99.90;;;;;;4996135;28;20073;-82
2022/04/07 12:14:55;;;;;;;7.25;1.90;;;10.50;99.90;;;;;;4996092;28;20132;-84
2022/04/07 12:17:22;;;;;;;9.43;1.70;;;10.50;99.90;;;;;;4980060;28;20074;-83
2022/04/07 12:19:49;;;;;;;7.80;1.83;;;10.60;99.90;;;;;;4995827;28;20046;-83
2022/04/07 12:22:16;;;;;;;9.02;2.05;;;10.60;99.90;;;;;;4996980;28;20406;-83
2022/04/07 12:25:03;;;;;;;7.70;1.60;;;10.60;99.90;;;;;;4997532;28;20041;-82
2022/04/07 12:27:33;;;;;;;13.70;2.28;;;10.70;99.90;;;;;;4979298;28;20082;-83
2022/04/07 12:30:00;;;;;;;8.52;1.70;;;10.80;99.90;;;;;;4979022;28;20062;-84
2022/04/07 12:32:39;;;;;;;12.65;1.77;;;10.90;99.90;;;;;;4995787;28;20448;-83
2022/04/07 12:35:05;;;;;;;9.75;1.63;;;10.90;99.90;;;;;;4995117;28;20049;-84
2022/04/07 12:37:33;;;;;;;16.98;2.50;;;10.40;99.90;;;;;;4995718;28;20045;-82
2022/04/07 12:40:00;;;;;;;7.03;1.70;;;9.80;99.90;;;;;;4996881;28;20038;-81
2022/04/07 12:42:26;;;;;;;6.97;1.13;;;9.00;99.90;;;;;;4995168;28;20505;-81
2022/04/07 12:45:06;;;;;;;7.18;0.90;;;8.70;99.90;;;;;;4996868;28;20081;-81
2022/04/07 12:47:32;;;;;;;6.18;1.13;;;8.70;99.90;;;;;;4978861;28;20049;-83
2022/04/07 12:50:01;;;;;;;8.57;1.40;;;9.00;99.90;;;;;;4995256;28;20038;-82
2022/04/07 12:52:35;;;;;;;9.07;1.35;;;9.20;99.90;;;;;;4995376;28;20415;-82
2022/04/07 12:55:06;;;;;;;7.28;1.83;;;9.20;99.90;;;;;;4995214;28;20166;-83
2022/04/07 12:57:38;;;;;;;3.15;1.00;;;9.50;99.90;;;;;;4978987;28;20042;-83
2022/04/07 13:00:10;;;;;;;7.32;0.93;;;9.80;99.90;;;;;;4996677;28;20045;-82
2022/04/07 13:03:12;;;;;;;6.80;1.83;;;10.20;99.90;;;;;;4995305;28;20039;-83
2022/04/07 13:05:38;;;;;;;5.20;1.10;;;10.30;99.90;;;;;;4994197;28;20057;-82
2022/04/07 13:08:05;;;;;;;11.52;1.50;;;10.20;99.90;;;;;;4979240;28;20042;-83
2022/04/07 13:10:31;;;;;;;11.68;1.75;;;10.20;99.90;;;;;;4994243;28;20125;-82
2022/04/07 13:12:57;;;;;;;8.07;1.73;;;10.30;99.90;;;;;;4996093;28;20058;-82
2022/04/07 13:15:24;;;;;;;10.30;1.55;;;10.40;99.90;;;;;;4994070;28;20071;-81
2022/04/07 13:17:49;;;;;;;9.25;2.15;;;10.50;99.90;;;;;;5000953;28;20042;-81
2022/04/07 13:20:16;;;;;;;8.80;1.88;;;10.50;99.90;;;;;;5004789;28;20106;-81
2022/04/07 13:22:42;;;;;;;6.40;1.50;;;10.30;99.90;;;;;;5008882;28;20036;-81
2022/04/07 13:25:09;;;;;;;8.93;1.48;;;10.10;99.90;;;;;;5015263;28;20050;-82
2022/04/07 13:27:35;;;;;;;5.18;1.10;;;10.00;99.90;;;;;;5009932;28;20101;-81
2022/04/07 13:30:00;;;;;;;5.65;1.52;;;9.70;99.90;;;;;;5000724;28;20074;-83
2022/04/07 13:32:26;;;;;;;4.78;1.00;;;8.80;99.90;;;;;;4995597;28;20053;-80
2022/04/07 13:34:52;;;;;;;4.70;1.30;;;8.20;99.90;;;;;;4997497;28;20077;-80
2022/04/07 13:37:19;;;;;;;5.25;1.40;;;8.00;99.90;;;;;;4995537;28;20518;-82
2022/04/07 13:39:44;;;;;;;5.47;1.25;;;8.00;99.90;;;;;;4996386;28;20042;-82
2022/04/07 13:42:11;;;;;;;5.28;1.13;;;8.30;99.90;;;;;;4995482;28;20045;-83
2022/04/07 13:44:37;;;;;;;8.63;1.20;;;8.50;99.90;;;;;;4995113;28;20038;-82
2022/04/07 13:47:03;;;;;;;4.53;1.30;;;8.50;99.90;;;;;;4996033;28;20183;-81
2022/04/07 13:49:29;;;;;;;16.98;2.10;;;8.50;99.90;;;;;;4994302;28;20151;-80
2022/04/07 13:52:00;;;;;;;13.93;2.30;;;8.60;99.90;;;;;;4994612;28;20118;-83
2022/04/07 13:54:26;;;;;;;12.57;2.17;;;9.10;99.90;;;;;;4994908;28;20050;-83
2022/04/07 13:56:52;;;;;;;17.92;2.15;;;9.50;99.90;;;;;;4994214;28;20042;-84
2022/04/07 13:59:17;;;;;;;16.55;2.22;;;9.60;99.90;;;;;;4995462;28;20065;-82
2022/04/07 14:01:43;;;;;;;7.72;1.92;;;9.70;99.90;;;;;;4995743;28;20483;-83
2022/04/07 14:04:09;;;;;;;13.68;3.35;;;9.70;99.90;;;;;;4994423;28;20042;-81
2022/04/07 14:06:35;;;;;;;6.90;2.38;;;9.80;99.90;;;;;;4994493;28;20625;-82
2022/04/07 14:09:00;;;;;;;12.52;2.17;;;9.70;99.90;;;;;;4996030;28;20435;-83
2022/04/07 14:11:26;;;;;;;10.45;2.13;;;9.60;99.90;;;;;;4993773;28;20081;-83
2022/04/07 14:13:52;;;;;;;12.32;2.25;;;9.60;99.90;;;;;;4993333;28;20125;-81
2022/04/07 14:16:19;;;;;;;7.80;1.50;;;9.60;99.90;;;;;;4993300;28;20050;-84
2022/04/07 14:18:45;;;;;;;11.02;1.65;;;9.00;99.90;;;;;;4995515;28;20092;-82
2022/04/07 14:21:12;;;;;;;5.38;1.33;;;8.50;99.90;;;;;;4993919;28;20038;-83
2022/04/07 14:23:38;;;;;;;6.13;1.40;;;8.20;99.90;;;;;;4995453;28;20048;-84
2022/04/07 14:26:03;;;;;;;9.07;1.52;;;7.90;99.90;;;;;;4979222;28;20050;-80
2022/04/07 14:28:29;;;;;;;14.00;3.35;;;7.50;99.90;;;;;;4995253;28;20478;-84
2022/04/07 14:30:54;;;;;;;7.32;2.08;;;7.10;99.90;;;;;;4977331;28;20042;-82
2022/04/07 14:33:20;;;;;;;8.68;1.70;;;6.80;99.90;;;;;;4995239;28;20046;-81
2022/04/07 14:35:47;;;;;;;7.10;1.90;;;6.90;99.90;;;;;;4993677;28;20072;-81
2022/04/07 14:38:13;;;;;;;4.47;1.15;;;6.90;99.90;;;;;;4977225;28;20064;-82
2022/04/07 14:40:41;;;;;;;3.17;1.17;;;7.00;99.90;;;;;;4993160;28;20161;-79
2022/04/07 14:43:07;;;;;;;6.10;1.65;;;7.00;99.90;;;;;;4994560;28;20042;-82
2022/04/07 14:45:32;;;;;;;7.72;1.88;;;7.10;99.90;;;;;;4995142;28;20368;-81
2022/04/07 14:47:58;;;;;;;6.65;1.50;;;7.20;99.90;;;;;;4993688;28;20074;-81
2022/04/07 14:50:24;;;;;;;11.13;1.88;;;7.40;99.90;;;;;;4993277;28;20475;-82
2022/04/07 14:52:50;;;;;;;6.53;1.58;;;7.60;99.90;;;;;;4977476;28;20052;-81
2022/04/07 14:55:16;;;;;;;7.35;1.55;;;7.80;99.90;;;;;;4993247;28;20379;-80
2022/04/07 14:57:42;;;;;;;7.07;1.95;;;8.20;99.90;;;;;;4993320;28;20034;-82
2022/04/07 15:00:08;;;;;;;3.53;1.38;;;8.50;99.90;;;;;;4976743;28;20042;-81
2022/04/07 15:02:34;;;;;;;6.70;0.90;;;8.60;99.90;;;;;;4976560;28;20121;-81
2022/04/07 15:05:00;;;;;;;4.65;1.50;;;8.50;99.90;;;;;;4993137;28;20124;-79
2022/04/07 15:07:27;;;;;;;5.13;1.33;;;8.20;99.90;;;;;;4993392;28;20038;-81
2022/04/07 15:09:55;;;;;;;5.97;1.00;;;7.90;99.90;;;;;;4993340;28;20092;-78
2022/04/07 15:12:21;;;;;;;10.02;1.83;;;7.80;99.90;;;;;;4976799;28;20080;-82
2022/04/07 15:14:46;;;;;;;5.85;1.45;;;7.90;99.90;;;;;;4993568;28;20046;-82
2022/04/07 15:17:12;;;;;;;10.35;1.55;;;8.10;99.90;;;;;;4994661;28;20548;-80
2022/04/07 15:19:39;;;;;;;5.22;1.52;;;8.10;99.90;;;;;;4993157;28;20042;-83
2022/04/07 15:22:08;;;;;;;9.85;1.77;;;8.40;99.90;;;;;;4993505;28;20070;-82
2022/04/07 15:24:37;;;;;;;7.03;0.90;;;8.80;99.90;;;;;;4993658;28;20100;-82
2022/04/07 15:27:06;;;;;;;3.72;0.80;;;9.20;99.90;;;;;;4995147;28;20038;-83
2022/04/07 15:29:33;;;;;;;2.65;0.90;;;9.30;99.90;;;;;;4997325;28;20129;-86
2022/04/07 15:31:58;;;;;;;4.85;1.08;;;9.30;99.90;;;;;;4996991;28;20058;-82
2022/04/07 15:34:24;;;;;;;4.13;1.23;;;9.30;99.90;;;;;;4996832;28;20046;-81
2022/04/07 15:36:49;;;;;;;5.25;1.42;;;9.40;99.90;;;;;;4997121;28;20045;-81
2022/04/07 15:39:15;;;;;;;8.55;1.35;;;9.60;99.90;;;;;;4997035;28;20050;-80
2022/04/07 15:41:42;;;;;;;7.90;1.88;;;9.60;99.90;;;;;;4998193;28;20041;-82
2022/04/07 15:44:08;;;;;;;4.50;1.33;;;9.60;99.90;;;;;;4998524;28;20049;-81
2022/04/07 15:46:36;;;;;;;9.10;1.63;;;9.70;99.90;;;;;;4998061;28;20030;-82
2022/04/07 15:49:05;;;;;;;6.75;1.70;;;9.70;99.90;;;;;;4997581;28;20431;-81
2022/04/07 15:51:31;;;;;;;3.75;1.08;;;9.80;99.90;;;;;;4980490;28;20050;-82
2022/04/07 15:53:57;;;;;;;6.18;1.92;;;9.90;99.90;;;;;;4996554;28;20053;-82